sensor_id;sensor_type;location;lat;lon;timestamp;P1;durP1;ratioP1;P2;durP2;ratioP2
35578;SDS011;21687;48.900;9.188;2023-09-08T00:02:02;9.50;;;8.40;;
35578;SDS011;21687;48.900;9.188;2023-09-08T00:04:28;8.90;;;7.97;;
35578;SDS011;21687;48.900;9.188;2023-09-08T00:06:55;8.80;;;7.93;;
35578;SDS011;21687;48.900;9.188;2023-09-08T00:09:21;9.10;;;8.20;;
35578;SDS011;21687;48.900;9.188;2023-09-08T00:11:47;8.20;;;7.50;;
35578;SDS011;21687;48.900;9.188;2023-09-08T00:14:13;8.67;;;7.77;;
35578;SDS011;21687;48.900;9.188;2023-09-08T00:16:40;8.70;;;7.90;;
35578;SDS011;21687;48.900;9.188;2023-09-08T00:19:08;10.43;;;7.83;;
35578;SDS011;21687;48.900;9.188;2023-09-08T00:21:37;9.47;;;8.30;;
35578;SDS011;21687;48.900;9.188;2023-09-08T00:24:04;11.57;;;8.17;;
35578;SDS011;21687;48.900;9.188;2023-09-08T00:26:31;8.77;;;7.97;;
35578;SDS011;21687;48.900;9.188;2023-09-08T00:28:57;8.87;;;8.07;;
35578;SDS011;21687;48.900;9.188;2023-09-08T00:31:24;9.70;;;8.70;;
35578;SDS011;21687;48.900;9.188;2023-09-08T00:33:50;9.13;;;8.27;;
35578;SDS011;21687;48.900;9.188;2023-09-08T00:36:16;9.80;;;8.70;;
35578;SDS011;21687;48.900;9.188;2023-09-08T00:38:44;9.47;;;8.50;;
35578;SDS011;21687;48.900;9.188;2023-09-08T00:41:10;10.10;;;8.83;;
35578;SDS011;21687;48.900;9.188;2023-09-08T00:43:36;9.50;;;8.47;;
35578;SDS011;21687;48.900;9.188;2023-09-08T00:46:03;9.00;;;8.10;;
35578;SDS011;21687;48.900;9.188;2023-09-08T00:48:31;9.60;;;8.40;;
35578;SDS011;21687;48.900;9.188;2023-09-08T00:50:57;10.87;;;9.23;;
35578;SDS011;21687;48.900;9.188;2023-09-08T00:53:24;10.50;;;9.13;;
35578;SDS011;21687;48.900;9.188;2023-09-08T00:55:51;10.03;;;9.10;;
35578;SDS011;21687;48.900;9.188;2023-09-08T00:58:17;10.43;;;9.37;;
35578;SDS011;21687;48.900;9.188;2023-09-08T01:00:44;9.73;;;8.70;;
35578;SDS011;21687;48.900;9.188;2023-09-08T01:03:11;11.17;;;9.53;;
35578;SDS011;21687;48.900;9.188;2023-09-08T01:05:37;11.43;;;10.27;;
35578;SDS011;21687;48.900;9.188;2023-09-08T01:08:04;10.77;;;9.77;;
35578;SDS011;21687;48.900;9.188;2023-09-08T01:10:32;13.53;;;9.43;;
35578;SDS011;21687;48.900;9.188;2023-09-08T01:13:00;10.37;;;9.37;;
35578;SDS011;21687;48.900;9.188;2023-09-08T01:15:26;11.20;;;9.57;;
35578;SDS011;21687;48.900;9.188;2023-09-08T01:17:53;10.70;;;8.87;;
35578;SDS011;21687;48.900;9.188;2023-09-08T01:20:23;12.00;;;9.27;;
35578;SDS011;21687;48.900;9.188;2023-09-08T01:26:07;11.20;;;10.10;;
35578;SDS011;21687;48.900;9.188;2023-09-08T01:28:39;10.10;;;9.03;;
35578;SDS011;21687;48.900;9.188;2023-09-08T01:31:07;11.63;;;10.37;;
35578;SDS011;21687;48.900;9.188;2023-09-08T01:33:34;11.13;;;10.10;;
35578;SDS011;21687;48.900;9.188;2023-09-08T01:36:01;11.63;;;9.90;;
35578;SDS011;21687;48.900;9.188;2023-09-08T01:38:27;12.47;;;9.93;;
35578;SDS011;21687;48.900;9.188;2023-09-08T01:40:53;11.00;;;9.90;;
35578;SDS011;21687;48.900;9.188;2023-09-08T01:43:20;12.97;;;10.80;;
35578;SDS011;21687;48.900;9.188;2023-09-08T01:45:46;11.50;;;10.30;;
35578;SDS011;21687;48.900;9.188;2023-09-08T01:48:12;11.80;;;10.60;;
35578;SDS011;21687;48.900;9.188;2023-09-08T01:50:39;11.53;;;10.33;;
35578;SDS011;21687;48.900;9.188;2023-09-08T01:53:05;12.97;;;11.43;;
35578;SDS011;21687;48.900;9.188;2023-09-08T01:55:31;12.17;;;11.03;;
35578;SDS011;21687;48.900;9.188;2023-09-08T01:57:58;12.53;;;11.23;;
35578;SDS011;21687;48.900;9.188;2023-09-08T02:00:24;12.20;;;11.10;;
35578;SDS011;21687;48.900;9.188;2023-09-08T02:02:51;11.90;;;10.80;;
35578;SDS011;21687;48.900;9.188;2023-09-08T02:05:17;11.87;;;10.67;;
35578;SDS011;21687;48.900;9.188;2023-09-08T02:07:43;12.63;;;11.43;;
35578;SDS011;21687;48.900;9.188;2023-09-08T02:10:10;11.90;;;10.67;;
35578;SDS011;21687;48.900;9.188;2023-09-08T02:12:36;12.13;;;10.93;;
35578;SDS011;21687;48.900;9.188;2023-09-08T02:15:03;11.70;;;10.53;;
35578;SDS011;21687;48.900;9.188;2023-09-08T02:17:30;12.40;;;11.17;;
35578;SDS011;21687;48.900;9.188;2023-09-08T02:19:56;12.40;;;11.10;;
35578;SDS011;21687;48.900;9.188;2023-09-08T02:22:23;12.30;;;11.10;;
35578;SDS011;21687;48.900;9.188;2023-09-08T02:24:50;12.67;;;11.47;;
35578;SDS011;21687;48.900;9.188;2023-09-08T02:27:16;12.20;;;11.00;;
35578;SDS011;21687;48.900;9.188;2023-09-08T02:29:43;12.20;;;11.00;;
35578;SDS011;21687;48.900;9.188;2023-09-08T02:32:09;13.30;;;11.27;;
35578;SDS011;21687;48.900;9.188;2023-09-08T02:34:36;11.80;;;10.70;;
35578;SDS011;21687;48.900;9.188;2023-09-08T02:37:02;12.70;;;11.50;;
35578;SDS011;21687;48.900;9.188;2023-09-08T02:39:29;12.77;;;11.17;;
35578;SDS011;21687;48.900;9.188;2023-09-08T02:41:57;14.70;;;11.37;;
35578;SDS011;21687;48.900;9.188;2023-09-08T02:44:23;13.67;;;12.37;;
35578;SDS011;21687;48.900;9.188;2023-09-08T02:46:51;13.10;;;11.67;;
35578;SDS011;21687;48.900;9.188;2023-09-08T02:49:18;16.30;;;12.63;;
35578;SDS011;21687;48.900;9.188;2023-09-08T02:51:44;12.80;;;11.47;;
35578;SDS011;21687;48.900;9.188;2023-09-08T02:54:10;13.47;;;11.77;;
35578;SDS011;21687;48.900;9.188;2023-09-08T02:56:37;15.13;;;11.50;;
35578;SDS011;21687;48.900;9.188;2023-09-08T02:59:03;13.40;;;12.00;;
35578;SDS011;21687;48.900;9.188;2023-09-08T03:01:29;14.23;;;12.80;;
35578;SDS011;21687;48.900;9.188;2023-09-08T03:03:55;14.63;;;13.20;;
35578;SDS011;21687;48.900;9.188;2023-09-08T03:06:22;15.40;;;12.63;;
35578;SDS011;21687;48.900;9.188;2023-09-08T03:08:48;13.60;;;12.30;;
35578;SDS011;21687;48.900;9.188;2023-09-08T03:11:14;15.03;;;13.53;;
35578;SDS011;21687;48.900;9.188;2023-09-08T03:13:41;15.63;;;12.73;;
35578;SDS011;21687;48.900;9.188;2023-09-08T03:16:08;13.53;;;12.27;;
35578;SDS011;21687;48.900;9.188;2023-09-08T03:18:35;14.07;;;12.63;;
35578;SDS011;21687;48.900;9.188;2023-09-08T03:21:03;14.30;;;12.63;;
35578;SDS011;21687;48.900;9.188;2023-09-08T03:23:37;13.50;;;12.30;;
35578;SDS011;21687;48.900;9.188;2023-09-08T03:26:04;14.43;;;12.47;;
35578;SDS011;21687;48.900;9.188;2023-09-08T03:28:33;14.13;;;12.27;;
35578;SDS011;21687;48.900;9.188;2023-09-08T03:31:03;13.17;;;11.87;;
35578;SDS011;21687;48.900;9.188;2023-09-08T03:33:29;13.17;;;11.87;;
35578;SDS011;21687;48.900;9.188;2023-09-08T03:35:56;13.50;;;11.90;;
35578;SDS011;21687;48.900;9.188;2023-09-08T03:38:23;13.60;;;12.30;;
35578;SDS011;21687;48.900;9.188;2023-09-08T03:40:49;13.50;;;12.17;;
35578;SDS011;21687;48.900;9.188;2023-09-08T03:43:16;13.20;;;12.00;;
35578;SDS011;21687;48.900;9.188;2023-09-08T03:45:42;14.93;;;13.43;;
35578;SDS011;21687;48.900;9.188;2023-09-08T03:48:09;15.33;;;13.17;;
35578;SDS011;21687;48.900;9.188;2023-09-08T03:50:35;16.30;;;13.70;;
35578;SDS011;21687;48.900;9.188;2023-09-08T03:53:02;15.17;;;13.13;;
35578;SDS011;21687;48.900;9.188;2023-09-08T03:55:28;15.10;;;13.53;;
35578;SDS011;21687;48.900;9.188;2023-09-08T03:57:54;15.00;;;13.40;;
35578;SDS011;21687;48.900;9.188;2023-09-08T04:00:21;14.70;;;13.10;;
35578;SDS011;21687;48.900;9.188;2023-09-08T04:02:48;15.00;;;13.50;;
35578;SDS011;21687;48.900;9.188;2023-09-08T04:05:15;15.17;;;13.67;;
35578;SDS011;21687;48.900;9.188;2023-09-08T04:07:42;15.33;;;13.83;;
35578;SDS011;21687;48.900;9.188;2023-09-08T04:10:10;14.93;;;13.43;;
35578;SDS011;21687;48.900;9.188;2023-09-08T04:12:36;15.97;;;14.37;;
35578;SDS011;21687;48.900;9.188;2023-09-08T04:15:03;16.40;;;14.80;;
35578;SDS011;21687;48.900;9.188;2023-09-08T04:17:31;16.17;;;13.77;;
35578;SDS011;21687;48.900;9.188;2023-09-08T04:19:58;16.30;;;14.23;;
35578;SDS011;21687;48.900;9.188;2023-09-08T04:22:25;16.80;;;14.90;;
35578;SDS011;21687;48.900;9.188;2023-09-08T04:24:51;16.17;;;14.50;;
35578;SDS011;21687;48.900;9.188;2023-09-08T04:27:19;16.87;;;14.93;;
35578;SDS011;21687;48.900;9.188;2023-09-08T04:29:48;15.90;;;14.20;;
35578;SDS011;21687;48.900;9.188;2023-09-08T04:32:15;19.00;;;14.90;;
35578;SDS011;21687;48.900;9.188;2023-09-08T04:34:41;16.47;;;14.70;;
35578;SDS011;21687;48.900;9.188;2023-09-08T04:37:08;16.50;;;14.80;;
35578;SDS011;21687;48.900;9.188;2023-09-08T04:39:35;16.47;;;14.77;;
35578;SDS011;21687;48.900;9.188;2023-09-08T04:42:02;17.30;;;15.50;;
35578;SDS011;21687;48.900;9.188;2023-09-08T04:44:29;20.50;;;16.63;;
35578;SDS011;21687;48.900;9.188;2023-09-08T04:46:55;17.67;;;15.63;;
35578;SDS011;21687;48.900;9.188;2023-09-08T04:49:21;17.73;;;15.93;;
35578;SDS011;21687;48.900;9.188;2023-09-08T04:51:47;18.63;;;15.43;;
35578;SDS011;21687;48.900;9.188;2023-09-08T04:54:14;18.63;;;15.67;;
35578;SDS011;21687;48.900;9.188;2023-09-08T04:56:40;17.57;;;15.73;;
35578;SDS011;21687;48.900;9.188;2023-09-08T04:59:07;19.50;;;16.43;;
35578;SDS011;21687;48.900;9.188;2023-09-08T05:01:33;17.27;;;15.17;;
35578;SDS011;21687;48.900;9.188;2023-09-08T05:04:01;21.07;;;16.30;;
35578;SDS011;21687;48.900;9.188;2023-09-08T05:06:30;20.73;;;17.17;;
35578;SDS011;21687;48.900;9.188;2023-09-08T05:08:56;19.17;;;17.10;;
35578;SDS011;21687;48.900;9.188;2023-09-08T05:11:24;18.40;;;16.50;;
35578;SDS011;21687;48.900;9.188;2023-09-08T05:13:51;18.87;;;16.93;;
35578;SDS011;21687;48.900;9.188;2023-09-08T05:16:17;19.07;;;16.20;;
35578;SDS011;21687;48.900;9.188;2023-09-08T05:18:50;20.40;;;16.40;;
35578;SDS011;21687;48.900;9.188;2023-09-08T05:21:17;16.73;;;15.03;;
35578;SDS011;21687;48.900;9.188;2023-09-08T05:23:43;28.57;;;15.13;;
35578;SDS011;21687;48.900;9.188;2023-09-08T05:26:09;18.83;;;15.70;;
35578;SDS011;21687;48.900;9.188;2023-09-08T05:28:35;17.53;;;15.67;;
35578;SDS011;21687;48.900;9.188;2023-09-08T05:31:01;18.53;;;16.17;;
35578;SDS011;21687;48.900;9.188;2023-09-08T05:33:29;17.73;;;15.87;;
35578;SDS011;21687;48.900;9.188;2023-09-08T05:35:55;17.97;;;15.90;;
35578;SDS011;21687;48.900;9.188;2023-09-08T05:38:22;19.63;;;15.60;;
35578;SDS011;21687;48.900;9.188;2023-09-08T05:40:50;17.53;;;15.07;;
35578;SDS011;21687;48.900;9.188;2023-09-08T05:43:16;18.13;;;15.67;;
35578;SDS011;21687;48.900;9.188;2023-09-08T05:45:42;17.27;;;15.40;;
35578;SDS011;21687;48.900;9.188;2023-09-08T05:48:08;17.67;;;14.60;;
35578;SDS011;21687;48.900;9.188;2023-09-08T05:50:35;18.33;;;13.87;;
35578;SDS011;21687;48.900;9.188;2023-09-08T05:53:02;19.00;;;13.57;;
35578;SDS011;21687;48.900;9.188;2023-09-08T05:55:28;16.40;;;14.57;;
35578;SDS011;21687;48.900;9.188;2023-09-08T05:57:55;17.70;;;14.13;;
35578;SDS011;21687;48.900;9.188;2023-09-08T06:00:21;16.73;;;14.37;;
35578;SDS011;21687;48.900;9.188;2023-09-08T06:02:47;17.47;;;13.47;;
35578;SDS011;21687;48.900;9.188;2023-09-08T06:05:14;16.23;;;13.30;;
35578;SDS011;21687;48.900;9.188;2023-09-08T06:07:40;14.23;;;11.93;;
35578;SDS011;21687;48.900;9.188;2023-09-08T06:10:07;15.43;;;12.20;;
35578;SDS011;21687;48.900;9.188;2023-09-08T06:12:33;13.13;;;11.40;;
35578;SDS011;21687;48.900;9.188;2023-09-08T06:14:59;14.57;;;11.63;;
35578;SDS011;21687;48.900;9.188;2023-09-08T06:17:28;12.37;;;11.17;;
35578;SDS011;21687;48.900;9.188;2023-09-08T06:19:54;13.87;;;12.03;;
35578;SDS011;21687;48.900;9.188;2023-09-08T06:22:21;17.70;;;10.50;;
35578;SDS011;21687;48.900;9.188;2023-09-08T06:24:47;11.20;;;9.77;;
35578;SDS011;21687;48.900;9.188;2023-09-08T06:27:14;12.03;;;10.13;;
35578;SDS011;21687;48.900;9.188;2023-09-08T06:29:41;11.07;;;9.83;;
35578;SDS011;21687;48.900;9.188;2023-09-08T06:32:08;10.57;;;9.50;;
35578;SDS011;21687;48.900;9.188;2023-09-08T06:34:35;10.37;;;9.37;;
35578;SDS011;21687;48.900;9.188;2023-09-08T06:37:01;12.83;;;8.93;;
35578;SDS011;21687;48.900;9.188;2023-09-08T06:39:28;9.43;;;8.43;;
35578;SDS011;21687;48.900;9.188;2023-09-08T06:41:54;9.87;;;8.10;;
35578;SDS011;21687;48.900;9.188;2023-09-08T06:44:20;12.73;;;8.50;;
35578;SDS011;21687;48.900;9.188;2023-09-08T06:46:47;8.43;;;7.63;;
35578;SDS011;21687;48.900;9.188;2023-09-08T06:49:13;10.87;;;8.37;;
35578;SDS011;21687;48.900;9.188;2023-09-08T06:51:39;10.17;;;8.20;;
35578;SDS011;21687;48.900;9.188;2023-09-08T06:54:06;9.27;;;7.90;;
35578;SDS011;21687;48.900;9.188;2023-09-08T06:56:32;8.17;;;7.37;;
35578;SDS011;21687;48.900;9.188;2023-09-08T06:58:58;10.93;;;7.47;;
35578;SDS011;21687;48.900;9.188;2023-09-08T07:01:26;9.53;;;7.47;;
35578;SDS011;21687;48.900;9.188;2023-09-08T07:03:52;8.50;;;6.80;;
35578;SDS011;21687;48.900;9.188;2023-09-08T07:06:18;7.90;;;6.80;;
35578;SDS011;21687;48.900;9.188;2023-09-08T07:08:48;7.37;;;6.67;;
35578;SDS011;21687;48.900;9.188;2023-09-08T07:11:17;10.43;;;6.77;;
35578;SDS011;21687;48.900;9.188;2023-09-08T07:13:43;10.50;;;6.70;;
35578;SDS011;21687;48.900;9.188;2023-09-08T07:16:10;7.50;;;6.67;;
35578;SDS011;21687;48.900;9.188;2023-09-08T07:18:37;8.40;;;7.07;;
35578;SDS011;21687;48.900;9.188;2023-09-08T07:21:03;9.63;;;7.07;;
35578;SDS011;21687;48.900;9.188;2023-09-08T07:23:30;8.27;;;6.87;;
35578;SDS011;21687;48.900;9.188;2023-09-08T07:25:56;7.73;;;7.00;;
35578;SDS011;21687;48.900;9.188;2023-09-08T07:28:22;9.40;;;7.10;;
35578;SDS011;21687;48.900;9.188;2023-09-08T07:30:49;9.80;;;7.30;;
35578;SDS011;21687;48.900;9.188;2023-09-08T07:33:15;8.43;;;6.93;;
35578;SDS011;21687;48.900;9.188;2023-09-08T07:35:41;11.00;;;7.03;;
35578;SDS011;21687;48.900;9.188;2023-09-08T07:38:08;7.90;;;6.37;;
35578;SDS011;21687;48.900;9.188;2023-09-08T07:40:35;8.43;;;6.87;;
35578;SDS011;21687;48.900;9.188;2023-09-08T07:43:01;7.00;;;6.23;;
35578;SDS011;21687;48.900;9.188;2023-09-08T07:45:27;9.80;;;6.37;;
35578;SDS011;21687;48.900;9.188;2023-09-08T07:47:54;8.07;;;6.27;;
35578;SDS011;21687;48.900;9.188;2023-09-08T07:50:21;7.23;;;6.50;;
35578;SDS011;21687;48.900;9.188;2023-09-08T07:52:53;8.03;;;6.17;;
35578;SDS011;21687;48.900;9.188;2023-09-08T07:55:21;7.57;;;5.97;;
35578;SDS011;21687;48.900;9.188;2023-09-08T07:57:48;6.43;;;5.67;;
35578;SDS011;21687;48.900;9.188;2023-09-08T08:00:16;7.20;;;6.43;;
35578;SDS011;21687;48.900;9.188;2023-09-08T08:02:46;8.37;;;5.93;;
35578;SDS011;21687;48.900;9.188;2023-09-08T08:05:17;7.87;;;6.40;;
35578;SDS011;21687;48.900;9.188;2023-09-08T08:07:43;6.80;;;6.13;;
35578;SDS011;21687;48.900;9.188;2023-09-08T08:10:10;6.73;;;6.13;;
35578;SDS011;21687;48.900;9.188;2023-09-08T08:12:37;6.13;;;5.53;;
35578;SDS011;21687;48.900;9.188;2023-09-08T08:15:07;7.10;;;6.50;;
35578;SDS011;21687;48.900;9.188;2023-09-08T08:17:37;7.17;;;6.47;;
35578;SDS011;21687;48.900;9.188;2023-09-08T08:20:05;6.87;;;6.17;;
35578;SDS011;21687;48.900;9.188;2023-09-08T08:22:35;8.13;;;6.20;;
35578;SDS011;21687;48.900;9.188;2023-09-08T08:25:02;8.00;;;6.43;;
35578;SDS011;21687;48.900;9.188;2023-09-08T08:27:28;10.80;;;6.30;;
35578;SDS011;21687;48.900;9.188;2023-09-08T08:29:58;7.03;;;6.27;;
35578;SDS011;21687;48.900;9.188;2023-09-08T08:32:26;8.30;;;6.40;;
35578;SDS011;21687;48.900;9.188;2023-09-08T08:34:53;10.63;;;6.13;;
35578;SDS011;21687;48.900;9.188;2023-09-08T08:37:19;7.80;;;6.47;;
35578;SDS011;21687;48.900;9.188;2023-09-08T08:39:45;8.70;;;6.60;;
35578;SDS011;21687;48.900;9.188;2023-09-08T08:42:12;10.97;;;6.57;;
35578;SDS011;21687;48.900;9.188;2023-09-08T08:44:39;8.13;;;6.30;;
35578;SDS011;21687;48.900;9.188;2023-09-08T08:47:06;6.60;;;5.97;;
35578;SDS011;21687;48.900;9.188;2023-09-08T08:49:34;6.80;;;6.20;;
35578;SDS011;21687;48.900;9.188;2023-09-08T08:52:02;6.53;;;5.93;;
35578;SDS011;21687;48.900;9.188;2023-09-08T08:54:37;8.30;;;6.20;;
35578;SDS011;21687;48.900;9.188;2023-09-08T08:57:04;7.23;;;6.60;;
35578;SDS011;21687;48.900;9.188;2023-09-08T08:59:32;9.27;;;6.27;;
35578;SDS011;21687;48.900;9.188;2023-09-08T09:01:59;8.97;;;6.60;;
35578;SDS011;21687;48.900;9.188;2023-09-08T09:04:27;13.27;;;6.83;;
35578;SDS011;21687;48.900;9.188;2023-09-08T09:06:54;9.67;;;5.90;;
35578;SDS011;21687;48.900;9.188;2023-09-08T09:09:21;7.43;;;6.10;;
35578;SDS011;21687;48.900;9.188;2023-09-08T09:11:49;8.23;;;5.83;;
35578;SDS011;21687;48.900;9.188;2023-09-08T09:14:15;6.73;;;6.13;;
35578;SDS011;21687;48.900;9.188;2023-09-08T09:16:45;11.00;;;5.47;;
35578;SDS011;21687;48.900;9.188;2023-09-08T09:19:19;7.43;;;5.97;;
35578;SDS011;21687;48.900;9.188;2023-09-08T09:21:52;10.20;;;5.87;;
35578;SDS011;21687;48.900;9.188;2023-09-08T09:27:00;6.83;;;6.10;;
35578;SDS011;21687;48.900;9.188;2023-09-08T09:29:27;7.70;;;6.23;;
35578;SDS011;21687;48.900;9.188;2023-09-08T09:31:55;7.00;;;6.30;;
35578;SDS011;21687;48.900;9.188;2023-09-08T09:34:23;6.10;;;5.50;;
35578;SDS011;21687;48.900;9.188;2023-09-08T09:36:50;9.63;;;6.03;;
35578;SDS011;21687;48.900;9.188;2023-09-08T09:39:17;7.37;;;5.90;;
35578;SDS011;21687;48.900;9.188;2023-09-08T09:41:45;12.67;;;6.70;;
35578;SDS011;21687;48.900;9.188;2023-09-08T09:44:13;8.83;;;5.67;;
35578;SDS011;21687;48.900;9.188;2023-09-08T09:46:44;7.73;;;6.03;;
35578;SDS011;21687;48.900;9.188;2023-09-08T09:49:14;7.03;;;5.60;;
35578;SDS011;21687;48.900;9.188;2023-09-08T09:51:45;7.10;;;6.27;;
35578;SDS011;21687;48.900;9.188;2023-09-08T09:54:13;6.70;;;6.10;;
35578;SDS011;21687;48.900;9.188;2023-09-08T09:56:40;8.63;;;6.30;;
35578;SDS011;21687;48.900;9.188;2023-09-08T09:59:10;6.80;;;6.00;;
35578;SDS011;21687;48.900;9.188;2023-09-08T10:01:40;7.27;;;6.57;;
35578;SDS011;21687;48.900;9.188;2023-09-08T10:04:08;8.00;;;6.37;;
35578;SDS011;21687;48.900;9.188;2023-09-08T10:06:36;6.67;;;6.07;;
35578;SDS011;21687;48.900;9.188;2023-09-08T10:09:05;6.93;;;6.20;;
35578;SDS011;21687;48.900;9.188;2023-09-08T10:11:42;6.80;;;6.10;;
35578;SDS011;21687;48.900;9.188;2023-09-08T10:14:17;9.47;;;6.20;;
35578;SDS011;21687;48.900;9.188;2023-09-08T10:16:44;7.53;;;5.90;;
35578;SDS011;21687;48.900;9.188;2023-09-08T10:19:14;8.83;;;5.70;;
35578;SDS011;21687;48.900;9.188;2023-09-08T10:21:42;8.63;;;5.57;;
35578;SDS011;21687;48.900;9.188;2023-09-08T10:24:14;6.43;;;5.80;;
35578;SDS011;21687;48.900;9.188;2023-09-08T10:26:44;6.43;;;5.87;;
35578;SDS011;21687;48.900;9.188;2023-09-08T10:29:16;7.27;;;6.20;;
35578;SDS011;21687;48.900;9.188;2023-09-08T10:31:44;7.03;;;6.00;;
35578;SDS011;21687;48.900;9.188;2023-09-08T10:34:11;8.83;;;6.07;;
35578;SDS011;21687;48.900;9.188;2023-09-08T10:36:38;10.27;;;6.17;;
35578;SDS011;21687;48.900;9.188;2023-09-08T10:44:43;6.17;;;5.13;;
35578;SDS011;21687;48.900;9.188;2023-09-08T10:47:30;6.23;;;5.63;;
35578;SDS011;21687;48.900;9.188;2023-09-08T10:49:59;6.50;;;5.40;;
35578;SDS011;21687;48.900;9.188;2023-09-08T10:52:26;6.17;;;5.57;;
35578;SDS011;21687;48.900;9.188;2023-09-08T10:54:54;6.03;;;5.43;;
35578;SDS011;21687;48.900;9.188;2023-09-08T10:57:24;6.10;;;5.23;;
35578;SDS011;21687;48.900;9.188;2023-09-08T11:05:06;6.10;;;5.60;;
35578;SDS011;21687;48.900;9.188;2023-09-08T11:07:38;8.63;;;5.20;;
35578;SDS011;21687;48.900;9.188;2023-09-08T11:10:06;6.03;;;4.87;;
35578;SDS011;21687;48.900;9.188;2023-09-08T11:12:34;8.53;;;5.40;;
35578;SDS011;21687;48.900;9.188;2023-09-08T11:15:04;7.10;;;5.43;;
35578;SDS011;21687;48.900;9.188;2023-09-08T11:17:33;9.00;;;5.20;;
35578;SDS011;21687;48.900;9.188;2023-09-08T11:20:02;6.63;;;5.03;;
35578;SDS011;21687;48.900;9.188;2023-09-08T11:22:34;6.37;;;4.93;;
35578;SDS011;21687;48.900;9.188;2023-09-08T11:25:06;5.77;;;5.10;;
35578;SDS011;21687;48.900;9.188;2023-09-08T11:27:34;7.13;;;5.20;;
35578;SDS011;21687;48.900;9.188;2023-09-08T11:30:01;7.93;;;5.70;;
35578;SDS011;21687;48.900;9.188;2023-09-08T11:32:33;10.27;;;4.93;;
35578;SDS011;21687;48.900;9.188;2023-09-08T11:35:01;6.00;;;5.40;;
35578;SDS011;21687;48.900;9.188;2023-09-08T11:37:38;5.93;;;5.37;;
35578;SDS011;21687;48.900;9.188;2023-09-08T11:40:06;8.63;;;5.30;;
35578;SDS011;21687;48.900;9.188;2023-09-08T11:42:35;5.97;;;4.93;;
35578;SDS011;21687;48.900;9.188;2023-09-08T11:45:01;7.97;;;5.10;;
35578;SDS011;21687;48.900;9.188;2023-09-08T11:47:29;9.13;;;5.27;;
35578;SDS011;21687;48.900;9.188;2023-09-08T11:49:56;5.60;;;5.10;;
35578;SDS011;21687;48.900;9.188;2023-09-08T11:52:23;5.47;;;4.90;;
35578;SDS011;21687;48.900;9.188;2023-09-08T11:54:50;6.87;;;5.37;;
35578;SDS011;21687;48.900;9.188;2023-09-08T11:57:17;6.07;;;5.07;;
35578;SDS011;21687;48.900;9.188;2023-09-08T11:59:44;5.97;;;5.37;;
35578;SDS011;21687;48.900;9.188;2023-09-08T12:02:13;6.33;;;5.70;;
35578;SDS011;21687;48.900;9.188;2023-09-08T12:04:40;8.17;;;5.37;;
35578;SDS011;21687;48.900;9.188;2023-09-08T12:07:07;5.57;;;5.00;;
35578;SDS011;21687;48.900;9.188;2023-09-08T12:09:42;9.60;;;5.57;;
35578;SDS011;21687;48.900;9.188;2023-09-08T12:12:12;5.87;;;5.23;;
35578;SDS011;21687;48.900;9.188;2023-09-08T12:14:41;5.57;;;5.13;;
35578;SDS011;21687;48.900;9.188;2023-09-08T12:17:08;5.37;;;4.87;;
35578;SDS011;21687;48.900;9.188;2023-09-08T12:19:36;7.20;;;5.03;;
35578;SDS011;21687;48.900;9.188;2023-09-08T12:22:04;6.00;;;5.40;;
35578;SDS011;21687;48.900;9.188;2023-09-08T12:27:24;6.83;;;5.53;;
35578;SDS011;21687;48.900;9.188;2023-09-08T12:30:00;7.73;;;5.90;;
35578;SDS011;21687;48.900;9.188;2023-09-08T12:32:31;5.80;;;5.23;;
35578;SDS011;21687;48.900;9.188;2023-09-08T12:34:58;6.37;;;5.40;;
35578;SDS011;21687;48.900;9.188;2023-09-08T12:37:28;8.20;;;6.00;;
35578;SDS011;21687;48.900;9.188;2023-09-08T12:39:56;9.50;;;5.67;;
35578;SDS011;21687;48.900;9.188;2023-09-08T12:42:23;8.83;;;5.27;;
35578;SDS011;21687;48.900;9.188;2023-09-08T12:44:55;7.50;;;5.60;;
35578;SDS011;21687;48.900;9.188;2023-09-08T12:47:21;5.90;;;5.30;;
35578;SDS011;21687;48.900;9.188;2023-09-08T12:49:47;5.80;;;5.30;;
35578;SDS011;21687;48.900;9.188;2023-09-08T12:52:14;7.23;;;5.17;;
35578;SDS011;21687;48.900;9.188;2023-09-08T12:54:40;5.50;;;4.97;;
35578;SDS011;21687;48.900;9.188;2023-09-08T12:57:06;6.27;;;5.53;;
35578;SDS011;21687;48.900;9.188;2023-09-08T12:59:33;7.50;;;5.27;;
35578;SDS011;21687;48.900;9.188;2023-09-08T13:01:59;9.03;;;5.20;;
35578;SDS011;21687;48.900;9.188;2023-09-08T13:04:25;7.20;;;5.00;;
35578;SDS011;21687;48.900;9.188;2023-09-08T13:06:52;6.97;;;4.73;;
35578;SDS011;21687;48.900;9.188;2023-09-08T13:09:18;6.43;;;5.07;;
35578;SDS011;21687;48.900;9.188;2023-09-08T13:11:45;7.33;;;5.33;;
35578;SDS011;21687;48.900;9.188;2023-09-08T13:14:12;6.93;;;5.20;;
35578;SDS011;21687;48.900;9.188;2023-09-08T13:16:38;5.37;;;4.87;;
35578;SDS011;21687;48.900;9.188;2023-09-08T13:19:05;6.50;;;5.07;;
35578;SDS011;21687;48.900;9.188;2023-09-08T13:21:31;5.80;;;5.23;;
35578;SDS011;21687;48.900;9.188;2023-09-08T13:23:57;5.73;;;4.87;;
35578;SDS011;21687;48.900;9.188;2023-09-08T13:26:24;5.93;;;4.70;;
35578;SDS011;21687;48.900;9.188;2023-09-08T13:28:50;9.03;;;5.33;;
35578;SDS011;21687;48.900;9.188;2023-09-08T13:31:17;6.10;;;5.03;;
35578;SDS011;21687;48.900;9.188;2023-09-08T13:33:43;5.93;;;5.30;;
35578;SDS011;21687;48.900;9.188;2023-09-08T13:36:10;5.47;;;4.97;;
35578;SDS011;21687;48.900;9.188;2023-09-08T13:38:36;8.33;;;4.60;;
35578;SDS011;21687;48.900;9.188;2023-09-08T13:41:02;6.90;;;4.97;;
35578;SDS011;21687;48.900;9.188;2023-09-08T13:43:28;6.00;;;4.97;;
35578;SDS011;21687;48.900;9.188;2023-09-08T13:45:55;5.73;;;5.17;;
35578;SDS011;21687;48.900;9.188;2023-09-08T13:48:22;5.70;;;5.20;;
35578;SDS011;21687;48.900;9.188;2023-09-08T13:50:48;5.63;;;4.97;;
35578;SDS011;21687;48.900;9.188;2023-09-08T13:53:14;5.23;;;4.73;;
35578;SDS011;21687;48.900;9.188;2023-09-08T13:55:41;5.80;;;4.97;;
35578;SDS011;21687;48.900;9.188;2023-09-08T13:58:07;5.47;;;4.70;;
35578;SDS011;21687;48.900;9.188;2023-09-08T14:00:34;5.27;;;4.67;;
35578;SDS011;21687;48.900;9.188;2023-09-08T14:03:03;5.90;;;5.10;;
35578;SDS011;21687;48.900;9.188;2023-09-08T14:05:30;6.37;;;4.90;;
35578;SDS011;21687;48.900;9.188;2023-09-08T14:07:56;4.97;;;4.57;;
35578;SDS011;21687;48.900;9.188;2023-09-08T14:10:22;5.10;;;4.70;;
35578;SDS011;21687;48.900;9.188;2023-09-08T14:12:48;7.40;;;4.50;;
35578;SDS011;21687;48.900;9.188;2023-09-08T14:15:15;8.27;;;4.53;;
35578;SDS011;21687;48.900;9.188;2023-09-08T14:17:41;5.53;;;4.30;;
35578;SDS011;21687;48.900;9.188;2023-09-08T14:20:08;6.47;;;4.70;;
35578;SDS011;21687;48.900;9.188;2023-09-08T14:22:35;7.20;;;5.07;;
35578;SDS011;21687;48.900;9.188;2023-09-08T14:25:02;4.60;;;4.20;;
35578;SDS011;21687;48.900;9.188;2023-09-08T14:27:28;5.93;;;4.90;;
35578;SDS011;21687;48.900;9.188;2023-09-08T14:29:54;5.13;;;4.67;;
35578;SDS011;21687;48.900;9.188;2023-09-08T14:32:21;7.33;;;4.40;;
35578;SDS011;21687;48.900;9.188;2023-09-08T14:34:48;5.70;;;5.00;;
35578;SDS011;21687;48.900;9.188;2023-09-08T14:37:14;7.33;;;4.40;;
35578;SDS011;21687;48.900;9.188;2023-09-08T14:39:40;6.00;;;4.47;;
35578;SDS011;21687;48.900;9.188;2023-09-08T14:42:07;5.27;;;4.80;;
35578;SDS011;21687;48.900;9.188;2023-09-08T14:44:34;5.20;;;4.80;;
35578;SDS011;21687;48.900;9.188;2023-09-08T14:47:02;6.43;;;4.37;;
35578;SDS011;21687;48.900;9.188;2023-09-08T14:49:28;7.33;;;4.30;;
35578;SDS011;21687;48.900;9.188;2023-09-08T14:51:55;6.33;;;4.27;;
35578;SDS011;21687;48.900;9.188;2023-09-08T14:54:21;4.37;;;4.03;;
35578;SDS011;21687;48.900;9.188;2023-09-08T14:56:47;4.53;;;4.03;;
35578;SDS011;21687;48.900;9.188;2023-09-08T14:59:13;5.53;;;4.17;;